Flight Track Log - Related Links

Times and Time Zones

All times are in EDT time to prevent confusion due to time zone crossing. See the UCA3586 flight status page for this flight to view local times or setup timezone preferences in your user account.

Time Position Orientation Groundspeed Altitude Reporting Facility
EDT Latitude Longitude Course Direction KTS MPH feet Rate Location/Type
Thu 09:52:12 AM 39.2000 -76.7000 21° North 152 175 1,400  Level Potomac TRACON
Thu 09:53:06 AM 39.2333 -76.6833 21° North 174 200 2,300 1,158 Climbing Potomac TRACON
Thu 09:54:06 AM 39.2833 -76.6667 14° North 175 201 3,600 1,240 Climbing Potomac TRACON
Thu 09:55:07 AM 39.2667 -76.6000 108° East 191 220 4,800 1,240 Climbing Potomac TRACON
Thu 09:56:00 AM 39.1500 -76.2422 90° East  Level FlightAware Approximate
Thu 09:56:07 AM 39.2167 -76.5667 153° Southeast 190 219 6,100  Level Potomac TRACON
Thu 09:57:00 AM 39.1815 -76.1843 21° North  Level FlightAware Approximate
Thu 09:57:07 AM 39.1833 -76.5167 131° Southeast 188 216 7,300  Level Potomac TRACON
Thu 09:58:14 AM 39.1667 -76.4500 108° East 194 223 8,100 843 Climbing Potomac TRACON
Thu 09:59:08 AM 39.1667 -76.3833 90° East 193 222 9,000 632 Climbing Potomac TRACON
Thu 10:00:08 AM 39.1667 -76.3167 90° East 223 257 9,300 700 Climbing Potomac TRACON
Thu 10:01:08 AM 39.2000 -76.2667 49° Northeast 196 226 10,400 843 Climbing Potomac TRACON
Thu 10:02:09 AM 39.2500 -76.2167 38° Northeast 195 224 11,000 298 Climbing Potomac TRACON
Thu 10:03:09 AM 39.2833 -76.1500 57° Northeast 227 261 11,000  Level Potomac TRACON
Thu 10:04:15 AM 39.3333 -76.0833 46° Northeast 244 281 11,000  Level Potomac TRACON
Thu 10:05:15 AM 39.3833 -76.0167 46° Northeast 249 287 11,000  Level Potomac TRACON
Thu 10:06:24 AM 39.4333 -75.9333 52° Northeast 250 288 11,000  Level Philadelphia TRACON
Thu 10:07:24 AM 39.4833 -75.8833 38° Northeast 250 288 11,000  Level Philadelphia TRACON
Thu 10:08:24 AM 39.5333 -75.8167 46° Northeast 251 289 11,000  Level Philadelphia TRACON
Thu 10:09:18 AM 39.5833 -75.7500 46° Northeast 248 285 11,000  Level Philadelphia TRACON
Thu 10:10:24 AM 39.6333 -75.6833 46° Northeast 249 287 11,000  Level Philadelphia TRACON
Thu 10:11:24 AM 39.6667 -75.6167 57° Northeast 249 287 11,000  Level Philadelphia TRACON
Thu 10:12:24 AM 39.7000 -75.5333 63° Northeast 255 293 11,000 -200 Level Philadelphia TRACON
Thu 10:13:24 AM 39.7333 -75.4333 67° East 259 298 10,600 -476 Descending Philadelphia TRACON
Thu 10:14:30 AM 39.7500 -75.3333 78° East 272 313 10,000 -762 Descending Philadelphia TRACON
Thu 10:15:30 AM 39.7833 -75.2500 62° Northeast 287 330 9,000 -952 Descending Philadelphia TRACON
Thu 10:16:36 AM 39.8167 -75.1333 70° East 289 333 8,000 -476 Descending Philadelphia TRACON
Thu 10:17:36 AM 39.8333 -75.0500 75° East 279 321 8,000  Level Philadelphia TRACON
Thu 10:18:30 AM 39.8667 -74.9667 62° Northeast 262 302 8,000 -250 Level Philadelphia TRACON
Thu 10:19:36 AM 39.9167 -74.9000 46° Northeast 263 303 7,500 -432 Descending Philadelphia TRACON
Thu 10:20:49 AM 39.9833 -74.8000 49° Northeast 277 319 7,000 -234 Descending New York TRACON
Thu 10:21:44 AM 40.0333 -74.7333 46° Northeast 261 300 7,000  Level New York TRACON
Thu 10:22:49 AM 40.0833 -74.6667 46° Northeast 255 293 7,000  Level New York TRACON
Thu 10:23:43 AM 40.1333 -74.6000 46° Northeast 254 292 7,000  Level New York TRACON
Thu 10:24:43 AM 40.2000 -74.5833 11° North 247 284 7,000 -347 Level New York TRACON
Thu 10:25:44 AM 40.2667 -74.5667 11° North 260 299 6,300 -500 Descending New York TRACON
Thu 10:26:43 AM 40.3333 -74.5500 11° North 264 304 6,000 -151 Descending New York TRACON
Thu 10:27:43 AM 40.4167 -74.5500 360° North 249 287 6,000  Level New York TRACON
Thu 10:28:44 AM 40.4833 -74.5500 360° North 247 284 6,000  Level New York TRACON
Thu 10:29:49 AM 40.5500 -74.5500 360° North 246 283 6,000 -450 Level New York TRACON
Thu 10:30:44 AM 40.6167 -74.5500 360° North 265 305 5,100 -500 Descending New York TRACON
Thu 10:31:49 AM 40.7000 -74.5500 360° North 256 295 5,000 -50 Descending New York TRACON
Thu 10:32:44 AM 40.7500 -74.5167 27° Northeast 252 290 5,000  Level New York TRACON
Thu 10:33:49 AM 40.8333 -74.4833 17° North 249 287 5,000  Level New York TRACON
Thu 10:34:44 AM 40.8833 -74.4500 27° Northeast 254 292 5,000  Level New York TRACON
Thu 10:35:44 AM 40.9167 -74.3667 62° Northeast 263 303 5,000 -50 Level New York TRACON
Thu 10:36:44 AM 40.9333 -74.2667 78° East 262 302 4,900 -500 Descending New York TRACON
Thu 10:37:44 AM 40.9167 -74.1833 105° East 280 322 4,000 -800 Descending New York TRACON
Thu 10:38:44 AM 40.9000 -74.1000 105° East 256 295 3,300 -750 Descending New York TRACON
Thu 10:39:44 AM 40.8333 -74.0667 159° South 247 284 2,500 -850 Descending New York TRACON
Thu 10:40:44 AM 40.7833 -74.1167 217° Southwest 234 269 1,600 -900 Descending New York TRACON

Login

Don't have an account? Register now (free) for customized features, flight alerts, and more!